Joaquín Méndez

Chefscout - Huracán
3 Dez 2028
Sonntag
Verarbeitung

Persönlichkeit

Anpassungsfähigkeit (10) Ehrgeiz (18) Kontroverse (11) Loyalität (16) Druck (9) Professionalität (18) Fairness (7) Temperament (15)

Profil

Trainerstil Demokratisch
Lizenz Kontinentale C
Entschlossenheit 10
Menschenführung 9
Motivation 8
Disziplin 10
Arbeitszufriedenheit
100%
Ermüdung
0%
Rolle Chefscout
Gehalt 97.5K p/W
Vertrag 14.03.2029

Leistung

Verhalten Gut
Trainingseffektivität
36%
Spielerentwicklung
45%
Verletzungsprävention
45%
Taktische Umsetzung
40%

Letzte Ereignisse

Nahm an einer Scouting-Besprechung teil jetzt
Empfahl ein Transferziel jetzt
Empfahl ein Transferziel jetzt
Empfahl ein Transferziel jetzt
Empfahl ein Transferziel jetzt
Empfahl ein Transferziel 7T her
Empfahl ein Transferziel 7T her
Empfahl ein Transferziel 7T her

Aktuell beobachtet

279
Spieler Verein Status Fähigkeit Vertrauen Beobachtet Zuletzt beobachtet Letzte Stimme
Franco Vázquez Argentinos Juniors Bericht bereit 111 / 114 65% 1 02.12.2028 -
Mohamed-Ali Cho Hull City Aktiv 139 / 156 40% 3 30.11.2028 -
Yousef Salech Cardiff City Aktiv 127 / 134 40% 3 30.11.2028 -
Asier Villalibre Racing Santander Aktiv 127 / 125 40% 1 30.11.2028 -
Thomas Oliveri Defensa y Justicia Aktiv 100 / 103 62% 1 03.07.2028 Befürworten
Facundo Báez Argentinos Juniors Aktiv 111 / 110 62% 1 19.06.2028 Befürworten
Richard Koné Queens Park Rangers Aktiv 131 / 132 40% 2 12.06.2028 -
Taiwo Awoniyi Middlesbrough Aktiv 133 / 139 40% 1 12.06.2028 -
Henrique Carmo Sochi Aktiv 129 / 127 40% 2 05.06.2028 -
Augusto Bando Ascoli Aktiv 112 / 108 40% 2 31.05.2028 -
Musa Danjuma Umraniyespor Aktiv 105 / 92 40% 1 31.05.2028 -
Sindre Walle Egeli Udinese Aktiv 138 / 139 40% 6 30.05.2028 -
Eli Junior Kroupi Bournemouth Aktiv 149 / 144 40% 3 30.05.2028 -
Ryan McAidoo Oldham Athletic Aktiv 119 / 126 40% 5 29.05.2028 -
Amin Nabizada Exeter City Aktiv 120 / 119 40% 1 29.05.2028 -
Igor Tyjon Barrow AFC Aktiv 124 / 129 40% 3 24.05.2028 -
Rio Ngumoha Plymouth Argyle Aktiv 147 / 139 40% 2 24.05.2028 -
Leo Pecover Swindon Town Aktiv 109 / 118 40% 1 23.05.2028 -
Trey Nyoni Rotherham United Aktiv 129 / 140 40% 3 22.05.2028 -
André Miranda Porto Aktiv 123 / 131 40% 2 22.05.2028 -
Gabriel Mec Feirense Aktiv 141 / 122 40% 2 20.05.2028 -
Shea Lacey Crystal Palace Aktiv 142 / 142 40% 1 17.05.2028 -
Giovanni Cantizano Fulham Aktiv 110 / 127 40% 2 16.05.2028 -
Kerim Alajbegović Modena Aktiv 124 / 127 40% 2 13.05.2028 -
İsak Vural Audace Cerignola Aktiv 114 / 119 40% 1 08.05.2028 -
Luca Williams-Barnett Walsall Aktiv 110 / 121 40% 1 04.05.2028 -
Jake Evans Crewe Alexandra Aktiv 120 / 121 40% 1 03.05.2028 -
Tyler Fletcher Rotherham United Aktiv 111 / 120 40% 4 02.05.2028 -
Omar Khedr Gillingham Aktiv 127 / 114 40% 1 02.05.2028 -
Josh Nichols Oldham Athletic Aktiv 108 / 133 40% 9 01.05.2028 -
Giovanni Leoni Lincoln City Aktiv 143 / 146 40% 1 26.04.2028 -
Andrea Cogoni Cosenza Aktiv 98 / 103 40% 1 26.04.2028 -
Daniel Banjaqui Benfica Aktiv 119 / 128 40% 4 24.04.2028 -
Kiani Inge Groningen Aktiv 109 / 116 40% 1 24.04.2028 -
Jorthy Mokio ADO Den Haag Aktiv 123 / 131 40% 3 20.04.2028 -
Kelian Le Pironnec Mirandés Aktiv 86 / 109 40% 1 20.04.2028 -
Andrea Bertoncini Triestina Aktiv 105 / 105 40% 1 19.04.2028 -
Miguel Figueiredo Benfica Aktiv 113 / 138 40% 2 18.04.2028 -
Makar Vysochenko Spartak Moscow Aktiv 94 / 92 40% 2 16.04.2028 -
Eko Solomon Leixões Aktiv 77 / 79 40% 2 13.04.2028 -
Andrey Ivlev Nizhniy Novgorod Aktiv 113 / 130 40% 1 09.04.2028 -
Claudio Martey Pianese Aktiv 83 / 83 40% 1 08.04.2028 -
Matvey Bardachev Zenit Aktiv 109 / 110 40% 1 06.04.2028 -
Gustavo Albarracín Alavés Aktiv 130 / 114 40% 1 05.04.2028 -
Thiago Silvero Vélez Aktiv 131 / 124 40% 1 05.04.2028 -
Olivier Leroux Mouscron Aktiv 90 / 104 40% 2 20.03.2028 -
Victor Hernandez Santa Fe Aktiv 114 / 118 40% 1 20.03.2028 -
Josh Acheampong Everton Aktiv 136 / 157 40% 4 18.03.2028 -
Ayden Heaven Portsmouth Aktiv 144 / 143 40% 3 16.03.2028 -
Martim Cunha Porto Aktiv 100 / 103 40% 1 13.03.2028 -
Honest Ahanor Atalanta Aktiv 126 / 151 40% 2 17.02.2028 -
Christos Mouzakitis Hull City Aktiv 126 / 136 40% 2 12.02.2028 -
Ruben Ramos LA Galaxy Aktiv 91 / 99 40% 2 11.02.2028 -
Ben Broggio Mansfield Town Aktiv 120 / 102 40% 3 10.02.2028 -
Gabe Forsyth Colchester United Aktiv 110 / 128 40% 1 09.02.2028 -
Babis Kostoulas Oxford United Aktiv 134 / 147 40% 1 08.02.2028 -
Benjamín Rodríguez Albion Aktiv 79 / 97 40% 2 06.02.2028 -
Francisco Marchant Colo-Colo Aktiv 91 / 108 40% 2 06.02.2028 -
Matvey Ivanov Zenit Aktiv 88 / 92 40% 1 05.02.2028 -
Ibrahim Fullah Charlton Athletic Aktiv 133 / 143 40% 1 02.02.2028 -
Lander Astiazarán Real Sociedad Aktiv 121 / 110 40% 2 31.01.2028 -
Ryan Kavuma-McQueen Accrington Stanley Aktiv 124 / 132 40% 1 28.01.2028 -
Pedro Baltika Aktiv 127 / 131 40% 1 26.01.2028 -
Giovanni Baroni Talleres Aktiv 110 / 126 40% 2 25.01.2028 -
Romelle Donovan Brentford Aktiv 139 / 142 40% 1 20.01.2028 -
Alex Verón Vélez Verhandlung 115 / 125 40% 1 19.01.2028 -
Bazoumana Touré Newcastle United Aktiv 135 / 154 40% 1 19.01.2028 -
Juan Camilo Córdoba Deportivo Pereira Aktiv 93 / 96 40% 1 13.01.2028 -
Mateus Mané Burnley Aktiv 142 / 141 40% 1 11.01.2028 -
Valentino Acuña Newell's Old Boys Aktiv 119 / 122 40% 1 09.01.2028 -
Lewis Orford Crewe Alexandra Aktiv 98 / 114 40% 1 05.01.2028 -
Nestory Irankunda Watford Aktiv 113 / 125 40% 1 03.01.2028 -
Nicolás Ferreira Artigas Aktiv 88 / 88 40% 1 03.01.2028 -
Joaquín Bigo Tristán Suárez Aktiv 97 / 98 62% 1 01.12.2027 Befürworten
Ignacio Fernández Boston River Aktiv 99 / 98 40% 1 01.12.2027 -
Kevin Zenón Boca Juniors Aktiv 135 / 131 40% 1 30.11.2027 -
Evgeny Latyshonok Nizhniy Novgorod Aktiv 137 / 131 40% 3 28.11.2027 -
Alexei Rojas Fedorushchenko Barrow AFC Aktiv 133 / 125 40% 1 28.11.2027 -
Jack Walton Preston Aktiv 135 / 134 40% 1 23.11.2027 -
Zion Suzuki Aston Villa Aktiv 156 / 144 40% 1 21.11.2027 -
Carl Rushworth Aston Villa Aktiv 155 / 152 40% 1 21.11.2027 -
Alex Meret Napoli Aktiv 149 / 166 40% 7 19.11.2027 -
Radek Vítek Middlesbrough Aktiv 149 / 139 40% 1 19.11.2027 -
Brandon Austin Brighton Aktiv 124 / 148 40% 1 18.11.2027 -
Vladan Kovačević Norwich City Aktiv 132 / 126 40% 2 16.11.2027 -
Lukáš Horníček Burnley Aktiv 158 / 155 40% 2 15.11.2027 -
Oliver Dovin Coventry City Aktiv 131 / 137 40% 1 15.11.2027 -
Caoimhin Kelleher Brentford Aktiv 169 / 169 40% 1 12.11.2027 -
Ezequiel Centurión River Plate Aktiv 128 / 133 40% 2 09.11.2027 -
Josh Keeley Luton Town Aktiv 126 / 135 40% 1 09.11.2027 -
Emiliano González Almagro Aktiv 109 / 114 40% 3 07.11.2027 -
Elia Caprile Cagliari Aktiv 141 / 140 40% 3 07.11.2027 -
Mads Hermansen West Ham United Aktiv 138 / 134 40% 2 06.11.2027 -
Anthony Patterson Wrexham Aktiv 151 / 139 40% 1 06.11.2027 -
James Trafford Leeds United Aktiv 145 / 139 40% 1 05.11.2027 -
Justin Bijlow Atalanta Aktiv 147 / 146 40% 1 29.10.2027 -
Vanja Milinković-Savić Atalanta Aktiv 163 / 140 40% 2 28.10.2027 -
Lucas Chevalier AC Milan Aktiv 174 / 174 40% 1 28.10.2027 -
Cristian Rivero Real Sociedad Aktiv 132 / 137 40% 7 26.10.2027 -
Esteban Glellel Quilmes Aktiv 110 / 110 40% 2 22.10.2027 -
Ilja Pomazun Spartak Moscow Aktiv 111 / 120 40% 1 22.10.2027 -
Temirlan Anarbekov Kairat Aktiv 117 / 108 40% 2 18.10.2027 -
Federico Losas Chacarita Juniors Aktiv 109 / 120 40% 3 16.10.2027 -
Abduvohid Ne'matov Nasaf Aktiv 126 / 111 40% 4 15.10.2027 -
Luciano Jachfe Nueva Chicago Aktiv 111 / 125 40% 3 14.10.2027 -
Ignacio Chicco Aldosivi Aktiv 114 / 113 40% 3 13.10.2027 -
Riccardo Gagno Vicenza Aktiv 114 / 130 40% 1 12.10.2027 -
Nicolás Sumavil Platense Aktiv 122 / 113 40% 2 08.10.2027 -
Mile Svilar AS Roma Aktiv 163 / 179 40% 1 04.10.2027 -
Jonathan Klinsmann Cesena Aktiv 129 / 119 40% 1 03.10.2027 -
Anton Mitryushkin Lokomotiv Moscow Aktiv 109 / 129 40% 2 01.10.2027 -
Renato Solís Sporting Cristal Aktiv 136 / 131 40% 2 28.09.2027 -
Leandro Brey Boca Juniors Aktiv 123 / 137 40% 2 23.09.2027 -
Emil Audero Como Aktiv 140 / 147 40% 2 19.09.2027 -
Christos Mandas Lazio Aktiv 149 / 155 40% 4 07.09.2027 -
Maxim Borisko CSKA Moscow Aktiv 140 / 134 40% 1 06.09.2027 -
Lautaro Morales Lanús Aktiv 121 / 120 40% 1 30.08.2027 -
Victor Aznar Sevilla Aktiv 122 / 128 40% 1 29.08.2027 -
Federico Ravaglia Bologna Aktiv 155 / 144 40% 1 17.08.2027 -
Matías Tagliamonte Racing Club Aktiv 110 / 127 40% 1 15.08.2027 -
Rustam Yatimov Rostov Aktiv 105 / 108 40% 1 12.08.2027 -
Adrian Šemper Al-Fateh Aktiv 125 / 126 40% 1 08.08.2027 -
Martin Zlomislić Qarabag Aktiv 135 / 110 40% 1 05.08.2027 -
Luis Ingolotti Atlético Tucumán Aktiv 137 / 117 40% 1 03.08.2027 -
Josep Martínez Inter Aktiv 132 / 138 40% 1 02.08.2027 -
Leandro Martins Benfica Aktiv 83 / 101 40% 1 28.06.2027 -
Bernardo Lima Porto Aktiv 98 / 110 40% 1 15.06.2027 -
Gonçalo Oliveira Benfica Aktiv 113 / 108 40% 1 03.06.2027 -
Luiz Henrique AS Roma Aktiv 142 / 143 68% 1 01.06.2027 Befürworten
Billy Gilmour Napoli Aktiv 144 / 140 40% 1 31.05.2027 -
Matías Soulé AS Roma Aktiv 158 / 160 40% 2 28.05.2027 -
Emanuele Scipioni Monopoli Aktiv 110 / 117 40% 1 28.05.2027 -
Mehdi Dorval Catanzaro Aktiv 130 / 137 40% 1 24.05.2027 -
Giorgi Tsitaishvili Rayo Vallecano Aktiv 137 / 127 40% 1 24.05.2027 -
Arthur Atta Fiorentina Aktiv 154 / 145 40% 2 23.05.2027 -
Mikael Egill Ellertsson Genoa Aktiv 145 / 125 40% 1 19.05.2027 -
Bongani Zungu Ajax Cape Town Aktiv 113 / 117 40% 3 18.05.2027 -
Giorgos Koutsias Famalicao Aktiv 114 / 111 40% 1 17.05.2027 -
Mitchel Bakker Modena Aktiv 145 / 133 40% 2 16.05.2027 -
Cher Ndour Fiorentina Aktiv 130 / 144 40% 1 14.05.2027 -
Giacomo Raspadori Atalanta Aktiv 149 / 149 40% 2 12.05.2027 -
Giorgi Kvernadze Frosinone Aktiv 132 / 120 40% 1 12.05.2027 -
Nuno Tavares Lazio Aktiv 156 / 137 40% 1 11.05.2027 -
Raoul Bellanova Atalanta Aktiv 141 / 158 40% 1 11.05.2027 -
John Yeboah Venezia Aktiv 119 / 132 40% 1 10.05.2027 -
Diego Gómez Brighton Aktiv 132 / 149 40% 2 08.05.2027 -
Adrián Bernabé Parma Aktiv 127 / 146 40% 1 08.05.2027 -
Lucas Da Cunha Como Aktiv 143 / 149 40% 2 07.05.2027 -
Pontus Almqvist Parma Aktiv 138 / 136 40% 2 07.05.2027 -
Nicolò Zaniolo Udinese Aktiv 150 / 146 40% 2 05.05.2027 -
Job Ochieng Real Sociedad Aktiv 109 / 105 40% 2 26.04.2027 -
Stiven Shpendi Empoli Aktiv 132 / 134 40% 1 26.04.2027 -
Camillo Tavernelli Arezzo Aktiv 129 / 109 40% 2 22.04.2027 -
Martin Baturina Como Aktiv 130 / 149 40% 1 22.04.2027 -
Ekain Orobengoa Real Sociedad Aktiv 91 / 115 40% 1 22.04.2027 -
Antoine Bernede Hellas Verona Aktiv 131 / 114 40% 1 16.04.2027 -
Marquinhos Spartak Moscow Aktiv 120 / 132 40% 3 13.04.2027 -
Savinho Tottenham Aktiv 164 / 157 40% 1 11.04.2027 -
Tommaso Pobega Bologna Aktiv 129 / 132 40% 1 09.04.2027 -
Hannibal Burnley Aktiv 127 / 116 40% 1 04.04.2027 -
Unai Gómez Udinese Aktiv 147 / 134 40% 2 03.04.2027 -
Mohau Nkota Al-Ettifaq Aktiv 122 / 132 40% 1 30.03.2027 -
Joe Gelhardt Hull City Aktiv 119 / 141 40% 5 26.03.2027 -
Chemsdine Talbi Sunderland Aktiv 137 / 159 40% 4 26.03.2027 -
Juanlu Bournemouth Aktiv 157 / 158 40% 1 24.03.2027 -
Marcelo Allende Mamelodi Sundowns Aktiv 124 / 125 40% 6 23.03.2027 -
Manor Solomon West Ham United Aktiv 150 / 149 40% 3 22.03.2027 -
Jack Rudoni Coventry City Aktiv 119 / 134 40% 2 22.03.2027 -
Alex Scott Bournemouth Aktiv 162 / 155 40% 1 21.03.2027 -
Wilson Isidor Sunderland Aktiv 129 / 129 40% 3 20.03.2027 -
Óscar Mingueza Crystal Palace Aktiv 147 / 155 40% 1 19.03.2027 -
Wandile Duba ASO Chlef Aktiv 113 / 108 40% 1 19.03.2027 -
Jacob Ramsey Newcastle United Aktiv 159 / 142 40% 1 17.03.2027 -
Oswin Appollis Orlando Pirates Aktiv 109 / 118 40% 1 13.03.2027 -
Osher Davida Maccabi Tel Aviv Aktiv 112 / 129 40% 1 09.03.2027 -
Yehor Yarmoliuk Brentford Aktiv 133 / 151 40% 1 09.03.2027 -
Marcel Ruiz Crystal Palace Aktiv 135 / 134 40% 2 07.03.2027 -
Malik Mothersille Stockport County Aktiv 102 / 118 40% 2 06.03.2027 -
Nazar Voloshyn Dynamo Kyiv Aktiv 142 / 137 40% 1 03.03.2027 -
James Garner Everton Aktiv 136 / 159 40% 1 03.03.2027 -
Yeremy Pino Crystal Palace Aktiv 154 / 137 40% 1 01.03.2027 -
Oston O'runov Persepolis Aktiv 130 / 110 40% 2 27.02.2027 -
Ivo Mammini Beitar Jerusalem Aktiv 125 / 119 40% 2 26.02.2027 -
Nicolas Jackson Aston Villa Aktiv 158 / 146 40% 2 26.02.2027 -
Lorent Tolaj Plymouth Argyle Aktiv 111 / 123 40% 1 25.02.2027 -
Matt O'Riley Brighton Aktiv 150 / 140 40% 1 19.02.2027 -
Amine Adli Bournemouth Aktiv 134 / 140 40% 1 18.02.2027 -
Adam Wharton Crystal Palace Aktiv 144 / 145 40% 1 18.02.2027 -
Brian Brobbey Sunderland Aktiv 149 / 146 40% 1 18.02.2027 -
Derensili Sanches Fernandes Huddersfield Town Aktiv 118 / 128 40% 2 12.02.2027 -
Boubacar Kamara Aston Villa Aktiv 163 / 162 40% 1 11.02.2027 -
Kevin Fulham Aktiv 152 / 143 40% 1 07.02.2027 -
Fábio Carvalho Brentford Aktiv 128 / 131 40% 1 04.02.2027 -
Jacques Siwe Rubin Aktiv 125 / 102 40% 2 03.02.2027 -
Etiosa Ighodaro Kaizer Chiefs Aktiv 119 / 113 40% 1 03.02.2027 -
Majid Moharrami Rah Ahan Aktiv 113 / 101 40% 1 02.02.2027 -
Thiago Brentford Aktiv 132 / 144 40% 1 01.02.2027 -
Ilyas Ansah Hull City Aktiv 129 / 126 40% 2 23.01.2027 -
Vyacheslav Grulev Nizhniy Novgorod Aktiv 112 / 100 40% 1 23.01.2027 -
Darlin Yongwa Norwich City Aktiv 110 / 121 40% 1 19.01.2027 -
Petar Stanić Ludogorets Aktiv 143 / 143 40% 2 18.01.2027 -
Scott Twine Bristol City Aktiv 129 / 109 40% 1 18.01.2027 -
Ali Ahmed Norwich City Aktiv 112 / 132 40% 1 13.01.2027 -
Alex Robertson Cardiff City Aktiv 117 / 108 40% 1 11.01.2027 -
Andre Brooks Sheffield United Aktiv 129 / 114 40% 2 08.01.2027 -
Bobby Clark Derby County Aktiv 123 / 128 40% 1 08.01.2027 -
André Wolverhampton Aktiv 158 / 139 40% 1 07.01.2027 -
Habib Diarra Sunderland Aktiv 154 / 156 40% 1 07.01.2027 -
Tyrese Campbell Sheffield United Aktiv 122 / 116 40% 2 05.01.2027 -
Lorenzo Colombo Genoa Aktiv 147 / 141 40% 1 05.01.2027 -
Welington Southampton Aktiv 118 / 135 40% 1 05.01.2027 -
Sam Greenwood Bristol City Aktiv 112 / 106 40% 1 04.01.2027 -
Esequiel Barco Spartak Moscow Aktiv 138 / 151 40% 1 29.12.2026 -
Armstrong Oko-Flex Levski Aktiv 107 / 133 40% 1 29.12.2026 -
Ola Brynhildsen Rapid Wien Aktiv 132 / 127 40% 1 01.12.2026 -
Ianis Hagi Alanyaspor Aktiv 123 / 120 40% 1 22.11.2026 -
Luis Caicedo Spartak 1918 Aktiv 99 / 100 40% 1 20.11.2026 -
Efraín Álvarez Aston Villa Aktiv 136 / 122 40% 1 18.11.2026 -
Ferland Mendy Real Madrid Aktiv 148 / 134 40% 2 17.11.2026 -
Edu Expósito Espanyol Aktiv 131 / 145 40% 3 17.11.2026 -
Oli McBurnie Hull City Aktiv 131 / 139 40% 2 17.11.2026 -
Martín Ojeda Orlando City Aktiv 137 / 124 40% 3 16.11.2026 -
Jason Knight Bristol City Aktiv 117 / 115 40% 1 15.11.2026 -
Jens Petter Hauge Bodo/Glimt Aktiv 136 / 153 40% 1 14.11.2026 -
Fiete Arp OB Aktiv 119 / 123 40% 3 13.11.2026 -
Matías Laurino Gornik Leczna Aktiv 84 / 94 40% 1 13.11.2026 -
Dwight McNeil Crystal Palace Aktiv 136 / 149 40% 2 10.11.2026 -
Ignacio Russo Tigre Aktiv 124 / 125 40% 1 07.11.2026 -
Marezi Portsmouth Aktiv 108 / 137 40% 1 07.11.2026 -
Hwang Hee-Chan Wolverhampton Aktiv 123 / 132 40% 2 05.11.2026 -
Talles Magno New York City Aktiv 120 / 119 40% 1 05.11.2026 -
Tatsuhiro Sakamoto Coventry City Aktiv 126 / 134 40% 1 03.11.2026 -
Leo Ceara Kashima Antlers Aktiv 151 / 148 40% 4 01.11.2026 -
Tiago Palacios Estudiantes Aktiv 129 / 134 40% 2 29.10.2026 -
Kévin Denkey FC Cincinnati Aktiv 131 / 128 40% 1 24.10.2026 -
Franco Cristaldo Talleres Aktiv 131 / 128 40% 1 22.10.2026 -
Nicolò Tresoldi Club Brugge Aktiv 118 / 118 40% 2 20.10.2026 -
Alexander Aravena Portland Timbers Aktiv 112 / 129 40% 2 18.10.2026 -
Reda Khadra Qarabag Aktiv 126 / 142 40% 1 18.10.2026 -
Tomás Molina Argentinos Juniors Aktiv 126 / 125 40% 4 13.10.2026 -
Domagoj Drožđek Tractor Aktiv 114 / 134 40% 1 13.10.2026 -
Zian Flemming Ipswich Town Aktiv 125 / 134 40% 1 11.10.2026 -
Allan Saint-Maximin Charlotte Football Club Aktiv 135 / 142 40% 1 11.10.2026 -
Majid Jahanbakhsh Rah Ahan Aktiv 123 / 123 40% 1 11.10.2026 -
Juninho Pumas UNAM Aktiv 131 / 132 40% 2 08.10.2026 -
Morgan Guilavogui Real Salt Lake Aktiv 128 / 118 40% 2 07.10.2026 -
Myrto Uzuni Austin FC Aktiv 145 / 146 40% 4 05.10.2026 -
Dániel Gazdag New England Revolution Aktiv 143 / 119 40% 1 05.10.2026 -
Josh Sargent Toronto FC Aktiv 143 / 115 40% 2 04.10.2026 -
Carlos Álvarez Club America Aktiv 137 / 140 40% 1 01.10.2026 -
Jordan Morris Seattle Sounders Aktiv 138 / 118 40% 1 29.09.2026 -
Jesus Ferreira Seattle Sounders Aktiv 135 / 122 40% 1 28.09.2026 -
Timo Werner San Jose Earthquakes Aktiv 130 / 120 40% 1 27.09.2026 -
Edwuin Cetré Estudiantes Aktiv 127 / 118 40% 1 27.09.2026 -
Erik Lira Cruz Azul Aktiv 131 / 128 40% 1 26.09.2026 -
Bryan González Guadalajara Aktiv 136 / 135 40% 1 25.09.2026 -
Richard Ledezma Guadalajara Aktiv 138 / 145 40% 1 23.09.2026 -
Ismael Díaz Leon Aktiv 116 / 136 40% 2 21.09.2026 -
Wessam Abou Ali Columbus Crew Aktiv 115 / 127 40% 1 21.09.2026 -
Alejandro Zendejas Club America Aktiv 131 / 128 40% 2 18.09.2026 -
Duncan McGuire Houston Dynamo Aktiv 121 / 125 40% 1 18.09.2026 -
Sergi Cardona KAA Gent Aktiv 149 / 143 40% 1 16.09.2026 -
Esteban Obregón Montevideo City Torque Aktiv 121 / 123 40% 1 15.09.2026 -
Sebastián Córdova Pumas UNAM Aktiv 140 / 117 40% 1 13.09.2026 -
Enzo Cabrera Danubio Aktiv 104 / 103 40% 1 10.09.2026 -
Agustín Paz Progreso Aktiv 112 / 116 40% 1 10.09.2026 -
Rafael Santos Borré River Plate Aktiv 124 / 133 40% 1 10.09.2026 -
Pep Biel Charlotte Football Club Aktiv 136 / 129 40% 1 07.09.2026 -
Federico Viñas Toluca Aktiv 111 / 125 40% 1 07.09.2026 -
Steven Bergwijn Al-Ittihad Aktiv 161 / 131 40% 1 02.09.2026 -
Kelvin Yeboah Minnesota United FC Aktiv 110 / 117 40% 1 31.08.2026 -
Maurits Kjærgaard Red Bull Salzburg Aktiv 138 / 132 40% 1 28.08.2026 -
Hugo Cuypers Monterrey Aktiv 142 / 120 40% 1 22.08.2026 -
Juan Dinenno Pumas UNAM Aktiv 126 / 136 40% 1 18.08.2026 -
Álex Arce Independiente Rivadavia Aktiv 121 / 135 40% 1 17.08.2026 -
Milton Giménez Boca Juniors Aktiv 133 / 123 40% 1 15.08.2026 -
Dejan Joveljić Seattle Sounders Aktiv 115 / 135 40% 1 14.08.2026 -
Aune Heggebø West Bromwich Albion Aktiv 121 / 141 40% 1 05.08.2026 -
Agustín Palavecino Cruz Azul Aktiv 143 / 133 40% 1 03.08.2026 -